Time;durP1;ratioP1;P1;durP2;ratioP2;P2;SDS_P1;SDS_P2;PMS_P1;PMS_P2;Temp;Humidity;BMP_temperature;BMP_pressure;BME280_temperature;BME280_humidity;BME280_pressure;Samples;Min_cycle;Max_cycle;Signal;HPM_P1;HPM_P2
2022/04/26 03:37:57;;;;;;;;;;;9.10;99.90;;;;;;5033228;28;19937;-64
2022/04/26 03:40:23;;;;;;;;;;;9.10;99.90;;;;;;5034403;28;20027;-65
2022/04/26 03:42:50;;;;;;;;;;;9.10;99.90;;;;;;5035495;28;20395;-64
2022/04/26 03:45:17;;;;;;;;;;;9.10;99.90;;;;;;5031969;28;19960;-64
2022/04/26 03:47:44;;;;;;;;;;;9.00;99.90;;;;;;5033235;28;19933;-64
2022/04/26 03:50:11;;;;;;;;;;;9.00;99.90;;;;;;5031689;28;20254;-64
2022/04/26 03:52:40;;;;;;;;;;;9.00;99.90;;;;;;5033009;28;20415;-65
2022/04/26 03:55:07;;;;;;;;;;;8.90;99.90;;;;;;5036831;28;20469;-65
2022/04/26 03:57:34;;;;;;;;;;;9.00;99.90;;;;;;5050753;28;20003;-64
2022/04/26 04:00:00;;;;;;;;;;;9.00;99.90;;;;;;5037246;28;20057;-64
2022/04/26 04:02:31;;;;;;;;;;;9.00;99.90;;;;;;5033741;28;19936;-64
2022/04/26 04:04:58;;;;;;;;;;;8.90;99.90;;;;;;5044118;28;19933;-65
2022/04/26 04:07:25;;;;;;;;;;;8.90;99.90;;;;;;5028848;28;19979;-65
2022/04/26 04:09:52;;;;;;;;;;;8.90;99.90;;;;;;5033322;28;20415;-64
2022/04/26 04:12:19;;;;;;;;;;;8.90;99.90;;;;;;5032457;28;20013;-64
2022/04/26 04:14:46;;;;;;;;;;;8.90;99.90;;;;;;5035145;28;19979;-64
2022/04/26 04:17:13;;;;;;;;;;;8.90;99.90;;;;;;5030655;28;20467;-64
2022/04/26 04:19:40;;;;;;;;;;;8.90;99.90;;;;;;5036190;28;20020;-64
2022/04/26 04:22:07;;;;;;;;;;;8.90;99.90;;;;;;5029248;28;19933;-64
2022/04/26 04:24:34;;;;;;;;;;;8.90;99.90;;;;;;5035228;28;19929;-64
2022/04/26 04:27:01;;;;;;;;;;;8.90;99.90;;;;;;5030331;28;19924;-64
2022/04/26 04:29:28;;;;;;;;;;;9.00;99.90;;;;;;5031643;28;20034;-64
2022/04/26 04:31:55;;;;;;;;;;;9.00;99.90;;;;;;5032321;28;19940;-65
2022/04/26 04:34:22;;;;;;;;;;;9.00;99.90;;;;;;5031766;28;20402;-64
2022/04/26 04:36:50;;;;;;;;;;;9.00;99.90;;;;;;5033153;28;20296;-64
2022/04/26 04:39:20;;;;;;;;;;;9.00;99.90;;;;;;5031161;28;20032;-64
2022/04/26 04:41:47;;;;;;;;;;;9.10;99.90;;;;;;5033385;28;19924;-64
2022/04/26 04:44:14;;;;;;;;;;;9.10;99.90;;;;;;5032930;28;20019;-64
2022/04/26 04:46:40;;;;;;;;;;;9.20;99.90;;;;;;5031916;28;20384;-65
2022/04/26 04:49:07;;;;;;;;;;;9.20;99.90;;;;;;5031419;28;19931;-65
2022/04/26 04:51:34;;;;;;;;;;;9.20;99.90;;;;;;5034665;28;20360;-63
2022/04/26 04:54:04;;;;;;;;;;;9.30;99.90;;;;;;5032688;28;19940;-63
2022/04/26 04:56:31;;;;;;;;;;;9.30;99.90;;;;;;5033682;28;19928;-64
2022/04/26 04:58:58;;;;;;;;;;;9.30;99.90;;;;;;5031680;28;22111;-63
2022/04/26 05:01:25;;;;;;;;;;;9.40;99.90;;;;;;5005752;28;20616;-63
2022/04/26 05:03:52;;;;;;;;;;;9.40;99.90;;;;;;4994661;28;19939;-63
2022/04/26 05:06:20;;;;;;;;;;;9.40;99.90;;;;;;4987533;28;19940;-64
2022/04/26 05:08:47;;;;;;;;;;;9.50;99.90;;;;;;4988206;28;20067;-65
2022/04/26 05:11:14;;;;;;;;;;;9.50;99.90;;;;;;4991512;28;20093;-65
2022/04/26 05:13:41;;;;;;;;;;;9.60;99.90;;;;;;4984789;28;19933;-64
2022/04/26 05:16:08;;;;;;;;;;;9.60;99.90;;;;;;4990223;28;20090;-63
2022/04/26 05:18:34;;;;;;;;;;;9.70;99.90;;;;;;4987061;28;19939;-65
2022/04/26 05:21:01;;;;;;;;;;;9.80;99.90;;;;;;4988370;28;22268;-63
2022/04/26 05:26:14;;;;;;;;;;;9.90;99.90;;;;;;4988927;28;19933;-63
2022/04/26 05:28:40;;;;;;;;;;;10.00;99.90;;;;;;4988108;28;19933;-64
2022/04/26 05:31:08;;;;;;;;;;;10.10;99.90;;;;;;4987799;28;19936;-63
2022/04/26 05:33:35;;;;;;;;;;;10.20;99.90;;;;;;4990771;28;19940;-63
2022/04/26 05:36:02;;;;;;;;;;;10.20;99.90;;;;;;4988238;28;20162;-64
2022/04/26 05:38:29;;;;;;;;;;;10.30;99.90;;;;;;5001831;28;19940;-63
2022/04/26 05:40:56;;;;;;;;;;;10.30;99.90;;;;;;4986953;28;20082;-63
2022/04/26 05:43:23;;;;;;;;;;;10.40;99.90;;;;;;4995296;28;20396;-63
2022/04/26 05:45:50;;;;;;;;;;;10.50;99.90;;;;;;5002993;28;19933;-63
2022/04/26 05:48:17;;;;;;;;;;;10.70;99.90;;;;;;4988621;28;21093;-63
2022/04/26 05:50:44;;;;;;;;;;;10.70;99.90;;;;;;4988095;28;19933;-63
2022/04/26 05:53:11;;;;;;;;;;;10.80;99.90;;;;;;5003331;28;19932;-63
2022/04/26 05:55:41;;;;;;;;;;;10.90;99.90;;;;;;4977327;28;20024;-63
2022/04/26 05:58:09;;;;;;;;;;;11.10;99.90;;;;;;4985584;28;19978;-66
2022/04/26 06:00:36;;;;;;;;;;;11.20;99.90;;;;;;4985066;28;19940;-64
2022/04/26 06:03:03;;;;;;;;;;;11.30;99.90;;;;;;4983781;28;19933;-66
2022/04/26 06:05:30;;;;;;;;;;;11.40;99.90;;;;;;4992992;28;20036;-65
2022/04/26 06:07:59;;;;;;;;;;;11.60;99.90;;;;;;4990870;28;23938;-65
2022/04/26 06:10:26;;;;;;;;;;;11.70;99.90;;;;;;4988794;28;20031;-66
2022/04/26 06:12:53;;;;;;;;;;;11.90;99.90;;;;;;4987713;28;19940;-63
2022/04/26 06:15:21;;;;;;;;;;;12.00;99.90;;;;;;4986472;28;19940;-65
2022/04/26 06:17:48;;;;;;;;;;;12.10;99.40;;;;;;4979729;28;20040;-65
2022/04/26 06:20:16;;;;;;;;;;;12.30;99.90;;;;;;5002961;28;19941;-65
2022/04/26 06:22:43;;;;;;;;;;;12.40;98.80;;;;;;4989428;28;20603;-65
2022/04/26 06:25:10;;;;;;;;;;;12.50;96.90;;;;;;4987434;28;20847;-65
2022/04/26 06:27:37;;;;;;;;;;;12.60;95.10;;;;;;4985896;28;19933;-65
2022/04/26 06:30:04;;;;;;;;;;;12.70;95.00;;;;;;4983868;28;19940;-65
2022/04/26 06:32:31;;;;;;;;;;;12.80;94.00;;;;;;4986645;28;20673;-65
2022/04/26 06:34:58;;;;;;;;;;;12.80;93.90;;;;;;4985928;28;19933;-65
2022/04/26 06:37:25;;;;;;;;;;;12.90;93.60;;;;;;4987824;28;22383;-65
2022/04/26 06:39:53;;;;;;;;;;;13.00;93.80;;;;;;5003161;28;19976;-65
2022/04/26 06:42:20;;;;;;;;;;;13.10;92.70;;;;;;4987401;28;24063;-65
2022/04/26 06:44:47;;;;;;;;;;;13.10;93.00;;;;;;4991214;28;20926;-65
2022/04/26 06:47:14;;;;;;;;;;;13.20;92.60;;;;;;4995831;28;20024;-66
2022/04/26 06:49:41;;;;;;;;;;;13.40;92.90;;;;;;4987749;28;20322;-65
2022/04/26 06:52:08;;;;;;;;;;;13.50;92.20;;;;;;4989863;28;19988;-66
2022/04/26 06:54:35;;;;;;;;;;;13.80;94.90;;;;;;4990158;28;20022;-65
2022/04/26 06:57:03;;;;;;;;;;;13.90;91.30;;;;;;5007381;28;20672;-65
2022/04/26 06:59:29;;;;;;;;;;;13.80;90.90;;;;;;4990760;28;19984;-65
2022/04/26 07:01:57;;;;;;;;;;;14.00;91.20;;;;;;4989569;28;19933;-65
2022/04/26 07:04:24;;;;;;;;;;;14.10;92.50;;;;;;4990172;28;19933;-65
2022/04/26 07:06:51;;;;;;;;;;;14.00;90.40;;;;;;4993049;28;19974;-65
2022/04/26 07:09:19;;;;;;;;;;;14.20;89.80;;;;;;4989621;28;19941;-65
2022/04/26 07:11:46;;;;;;;;;;;14.20;89.60;;;;;;4991075;28;19956;-65
2022/04/26 07:14:14;;;;;;;;;;;14.30;87.80;;;;;;4991404;28;20666;-65
2022/04/26 07:16:48;;;;;;;;;;;14.40;87.50;;;;;;4990343;28;20019;-65
2022/04/26 07:19:18;;;;;;;;;;;14.50;87.40;;;;;;4991380;28;19963;-65
2022/04/26 07:21:47;;;;;;;;;;;14.60;88.80;;;;;;4996816;28;20030;-65
2022/04/26 07:24:31;;;;;;;;;;;14.60;84.80;;;;;;4987263;28;19961;-65
2022/04/26 07:26:58;;;;;;;;;;;14.80;89.20;;;;;;4993441;28;20007;-66
2022/04/26 07:29:25;;;;;;;;;;;14.90;85.80;;;;;;4991288;28;19933;-66
2022/04/26 07:31:52;;;;;;;;;;;15.00;84.40;;;;;;4989561;28;20007;-65
2022/04/26 07:34:23;;;;;;;;;;;15.10;84.00;;;;;;4975057;28;19933;-66
2022/04/26 07:36:54;;;;;;;;;;;15.10;81.40;;;;;;5005690;28;20873;-65
2022/04/26 07:39:22;;;;;;;;;;;15.20;82.40;;;;;;4990299;28;20142;-65
2022/04/26 07:41:49;;;;;;;;;;;15.30;79.70;;;;;;5004019;28;20209;-65
2022/04/26 07:44:16;;;;;;;;;;;15.50;83.40;;;;;;4989089;28;22388;-66
2022/04/26 07:46:45;;;;;;;;;;;15.50;77.50;;;;;;4989884;28;20093;-66
2022/04/26 07:49:13;;;;;;;;;;;15.40;77.70;;;;;;4975008;28;19940;-66
2022/04/26 07:51:40;;;;;;;;;;;15.40;78.00;;;;;;4987827;28;19933;-66
2022/04/26 07:54:07;;;;;;;;;;;15.70;78.70;;;;;;4987379;28;21018;-66
2022/04/26 07:56:34;;;;;;;;;;;15.80;78.60;;;;;;4987110;28;19933;-66
2022/04/26 07:59:03;;;;;;;;;;;15.80;79.30;;;;;;4985976;28;19933;-65
2022/04/26 08:01:31;;;;;;;;;;;15.90;81.30;;;;;;4987479;28;20345;-66
2022/04/26 08:03:58;;;;;;;;;;;16.20;78.50;;;;;;4993471;28;19939;-65
2022/04/26 08:06:25;;;;;;;;;;;16.20;72.50;;;;;;4982577;28;22484;-65
2022/04/26 08:08:54;;;;;;;;;;;16.30;76.40;;;;;;4988287;28;20055;-65
2022/04/26 08:11:21;;;;;;;;;;;16.30;72.00;;;;;;4989951;28;19968;-65
2022/04/26 08:13:48;;;;;;;;;;;16.40;72.50;;;;;;4980911;28;20074;-66
2022/04/26 08:16:17;;;;;;;;;;;16.60;72.40;;;;;;4988151;28;19979;-65
2022/04/26 08:18:45;;;;;;;;;;;16.60;71.50;;;;;;4990593;28;19933;-64
2022/04/26 08:21:15;;;;;;;;;;;16.60;70.20;;;;;;4988872;28;19940;-64
2022/04/26 08:29:14;;;;;;;;;;;16.90;71.50;;;;;;4995538;28;20165;-67
2022/04/26 08:31:42;;;;;;;;;;;17.20;74.00;;;;;;4989645;28;19936;-67
2022/04/26 08:34:09;;;;;;;;;;;17.10;67.00;;;;;;4988892;28;19932;-67
2022/04/26 08:36:36;;;;;;;;;;;16.70;70.90;;;;;;4984662;28;21463;-67
2022/04/26 08:39:03;;;;;;;;;;;17.00;68.80;;;;;;4986299;28;19940;-67
2022/04/26 08:41:29;;;;;;;;;;;17.20;71.80;;;;;;4985615;28;22246;-67
2022/04/26 08:43:57;;;;;;;;;;;17.30;69.80;;;;;;4987961;28;19932;-67
2022/04/26 08:50:59;;;;;;;;;;;17.20;67.00;;;;;;5005846;28;19939;-67
2022/04/26 08:52:04;;;;;;;;;;;17.20;65.80;;;;;;4987004;28;20041;-67
2022/04/26 08:54:31;;;;;;;;;;;17.40;65.10;;;;;;4988850;28;19933;-67
2022/04/26 08:56:58;;;;;;;;;;;17.70;69.50;;;;;;4986923;28;22345;-67
2022/04/26 08:59:27;;;;;;;;;;;17.70;65.60;;;;;;4986229;28;22332;-66
2022/04/26 09:02:33;;;;;;;;;;;17.70;64.60;;;;;;4988712;28;19939;-68
2022/04/26 09:05:01;;;;;;;;;;;17.70;65.50;;;;;;4961355;28;20036;-68
2022/04/26 09:07:32;;;;;;;;;;;17.50;63.50;;;;;;4955597;28;19934;-67
2022/04/26 09:10:02;;;;;;;;;;;17.60;63.20;;;;;;4972542;28;21169;-68
2022/04/26 09:12:29;;;;;;;;;;;17.70;62.30;;;;;;4985256;28;20043;-67
2022/04/26 09:14:56;;;;;;;;;;;17.70;62.70;;;;;;4983500;28;19933;-68
2022/04/26 09:17:23;;;;;;;;;;;17.70;62.10;;;;;;4985839;28;19937;-67
2022/04/26 09:19:52;;;;;;;;;;;17.50;62.20;;;;;;4989421;28;19933;-67
2022/04/26 09:22:25;;;;;;;;;;;17.90;62.70;;;;;;4987439;28;20731;-68
2022/04/26 09:24:59;;;;;;;;;;;17.90;63.60;;;;;;4981878;28;20629;-69
2022/04/26 09:27:27;;;;;;;;;;;18.10;65.50;;;;;;4988774;28;19933;-68
2022/04/26 09:29:54;;;;;;;;;;;18.00;64.70;;;;;;4985934;28;19940;-67
2022/04/26 09:32:23;;;;;;;;;;;17.90;62.90;;;;;;4988898;28;19933;-66
2022/04/26 09:34:50;;;;;;;;;;;18.10;65.30;;;;;;4984131;28;19933;-68
2022/04/26 09:37:17;;;;;;;;;;;18.20;66.40;;;;;;4984347;28;19933;-68
2022/04/26 09:40:01;;;;;;;;;;;18.30;65.70;;;;;;4985744;28;19955;-68
2022/04/26 09:42:30;;;;;;;;;;;18.30;62.90;;;;;;4970465;28;19934;-67
2022/04/26 09:45:04;;;;;;;;;;;18.40;63.60;;;;;;4996918;28;19984;-68
2022/04/26 09:47:35;;;;;;;;;;;18.50;58.60;;;;;;4991447;28;19933;-67
2022/04/26 09:50:06;;;;;;;;;;;18.30;58.30;;;;;;4986687;28;19955;-67
2022/04/26 09:52:33;;;;;;;;;;;18.30;58.60;;;;;;5000024;28;19990;-68
2022/04/26 09:55:00;;;;;;;;;;;18.40;61.50;;;;;;4987216;28;22382;-66
2022/04/26 09:57:31;;;;;;;;;;;18.50;62.40;;;;;;4982420;28;19933;-67
2022/04/26 10:00:06;;;;;;;;;;;18.60;61.50;;;;;;4985433;28;19933;-68
2022/04/26 10:02:35;;;;;;;;;;;18.60;62.30;;;;;;4978622;28;19939;-68
2022/04/26 10:05:03;;;;;;;;;;;18.60;62.60;;;;;;4983867;28;19983;-70
2022/04/26 10:07:51;;;;;;;;;;;18.80;60.10;;;;;;5002322;28;19937;-68
2022/04/26 10:10:20;;;;;;;;;;;18.80;60.30;;;;;;4983798;28;20090;-68
2022/04/26 10:13:31;;;;;;;;;;;18.90;60.70;;;;;;4983679;28;19940;-69
2022/04/26 10:15:35;;;;;;;;;;;19.00;62.40;;;;;;4987729;28;19962;-68
2022/04/26 10:18:22;;;;;;;;;;;18.90;61.60;;;;;;4994875;28;22200;-70
2022/04/26 10:20:49;;;;;;;;;;;19.00;60.40;;;;;;4992393;28;19980;-68
2022/04/26 10:23:15;;;;;;;;;;;18.90;59.20;;;;;;4986741;28;20041;-67
2022/04/26 10:26:02;;;;;;;;;;;18.90;60.40;;;;;;4996609;28;19932;-68
2022/04/26 10:28:29;;;;;;;;;;;18.90;59.70;;;;;;4985625;28;19932;-67
2022/04/26 10:30:56;;;;;;;;;;;18.90;59.20;;;;;;4990467;28;20919;-68
2022/04/26 10:33:44;;;;;;;;;;;19.10;58.20;;;;;;4988839;28;19933;-68
2022/04/26 10:36:20;;;;;;;;;;;19.10;57.50;;;;;;4984771;28;20076;-68
2022/04/26 10:39:05;;;;;;;;;;;19.00;57.60;;;;;;4991864;28;22347;-68
2022/04/26 10:41:34;;;;;;;;;;;19.00;56.60;;;;;;4986807;28;21048;-67
2022/04/26 10:44:12;;;;;;;;;;;19.10;57.60;;;;;;4986673;28;19944;-67
2022/04/26 10:46:40;;;;;;;;;;;19.10;55.90;;;;;;4988713;28;19940;-67
2022/04/26 10:51:51;;;;;;;;;;;19.40;58.00;;;;;;4985625;28;19983;-68
2022/04/26 10:54:37;;;;;;;;;;;19.60;55.30;;;;;;4964649;28;19984;-67
2022/04/26 10:57:04;;;;;;;;;;;19.70;54.40;;;;;;4986386;28;19977;-68
2022/04/26 10:59:31;;;;;;;;;;;19.40;53.90;;;;;;4990695;28;20588;-68
2022/04/26 11:01:59;;;;;;;;;;;19.70;54.90;;;;;;4987627;28;19933;-68
2022/04/26 11:04:25;;;;;;;;;;;19.90;56.70;;;;;;4987870;28;19940;-68
2022/04/26 11:06:52;;;;;;;;;;;19.70;52.50;;;;;;4988503;28;19932;-68
2022/04/26 11:09:19;;;;;;;;;;;19.50;52.50;;;;;;4989568;28;19932;-67
2022/04/26 11:11:46;;;;;;;;;;;19.30;54.00;;;;;;4992742;28;20007;-68
2022/04/26 11:14:20;;;;;;;;;;;19.30;52.20;;;;;;5002580;28;19933;-68
2022/04/26 11:16:54;;;;;;;;;;;19.80;55.30;;;;;;4987483;28;20694;-67
2022/04/26 11:19:28;;;;;;;;;;;19.70;51.40;;;;;;4990421;28;20017;-67
2022/04/26 11:21:56;;;;;;;;;;;19.50;53.90;;;;;;4983807;28;19940;-68
2022/04/26 11:29:55;;;;;;;;;;;19.90;52.10;;;;;;5001171;28;20038;-68
2022/04/26 11:32:28;;;;;;;;;;;19.30;53.10;;;;;;4988915;28;19933;-68
2022/04/26 11:34:55;;;;;;;;;;;19.40;54.10;;;;;;4981296;28;22249;-68
2022/04/26 11:37:22;;;;;;;;;;;19.80;55.10;;;;;;4969105;28;19983;-68
2022/04/26 11:39:49;;;;;;;;;;;19.90;54.90;;;;;;4985477;28;19933;-69
2022/04/26 11:42:16;;;;;;;;;;;20.10;54.70;;;;;;4982824;28;19940;-68
2022/04/26 11:44:55;;;;;;;;;;;20.30;54.70;;;;;;4983863;28;20010;-69
2022/04/26 11:47:41;;;;;;;;;;;20.50;55.00;;;;;;4975738;28;19933;-69
2022/04/26 11:50:09;;;;;;;;;;;20.60;54.60;;;;;;4983935;28;19986;-68
2022/04/26 11:52:36;;;;;;;;;;;20.30;55.20;;;;;;4986773;28;19987;-68
2022/04/26 11:55:04;;;;;;;;;;;20.10;54.90;;;;;;4979532;28;19986;-68
2022/04/26 11:57:34;;;;;;;;;;;20.10;55.00;;;;;;4992598;28;19936;-69
2022/04/26 12:00:02;;;;;;;;;;;20.30;53.50;;;;;;4980484;28;19938;-69
2022/04/26 12:02:32;;;;;;;;;;;20.10;53.30;;;;;;4976731;28;19933;-69
2022/04/26 12:05:00;;;;;;;;;;;20.30;55.20;;;;;;4981729;28;20871;-68
2022/04/26 12:07:27;;;;;;;;;;;20.40;54.10;;;;;;4980289;28;20765;-69
2022/04/26 12:09:54;;;;;;;;;;;20.40;54.40;;;;;;4980951;28;19971;-69
2022/04/26 12:12:20;;;;;;;;;;;20.60;53.90;;;;;;4983258;28;19933;-69
2022/04/26 12:14:48;;;;;;;;;;;20.60;55.90;;;;;;4979322;28;19968;-68
2022/04/26 12:17:17;;;;;;;;;;;20.60;54.50;;;;;;4977907;28;22512;-68
2022/04/26 12:19:50;;;;;;;;;;;20.60;54.10;;;;;;4980987;28;20015;-68
2022/04/26 12:22:25;;;;;;;;;;;20.40;53.80;;;;;;4974790;28;19932;-68
2022/04/26 12:24:52;;;;;;;;;;;20.50;54.50;;;;;;4978322;28;19937;-69
2022/04/26 12:27:22;;;;;;;;;;;20.00;54.30;;;;;;4973623;28;19933;-68
2022/04/26 12:29:51;;;;;;;;;;;20.30;55.50;;;;;;4979360;28;19933;-69
2022/04/26 12:32:19;;;;;;;;;;;20.20;54.80;;;;;;4989151;28;20035;-69
2022/04/26 12:34:48;;;;;;;;;;;19.80;55.90;;;;;;4979333;28;19933;-69
2022/04/26 12:37:20;;;;;;;;;;;19.30;57.00;;;;;;4976775;28;19933;-68
2022/04/26 12:39:48;;;;;;;;;;;19.30;58.60;;;;;;4998105;28;20006;-68
2022/04/26 12:42:17;;;;;;;;;;;19.30;57.40;;;;;;4984127;28;20091;-68
2022/04/26 12:45:01;;;;;;;;;;;19.50;58.40;;;;;;4983442;28;20079;-69
2022/04/26 12:50:31;;;;;;;;;;;19.40;58.60;;;;;;4984132;28;20083;-69
2022/04/26 12:53:00;;;;;;;;;;;19.40;58.90;;;;;;4987101;28;19933;-69
2022/04/26 12:55:37;;;;;;;;;;;19.20;58.70;;;;;;4982661;28;19933;-69
2022/04/26 12:58:08;;;;;;;;;;;19.20;57.70;;;;;;4985309;28;19933;-69
2022/04/26 13:00:42;;;;;;;;;;;19.40;58.90;;;;;;4981059;28;19980;-69
2022/04/26 13:03:10;;;;;;;;;;;19.80;57.70;;;;;;4987714;28;21320;-69
2022/04/26 13:05:40;;;;;;;;;;;20.30;55.60;;;;;;4968033;28;20076;-69
2022/04/26 13:08:08;;;;;;;;;;;20.50;56.50;;;;;;4982063;28;20101;-69
2022/04/26 13:10:35;;;;;;;;;;;20.50;54.80;;;;;;4981450;28;20024;-69
2022/04/26 13:13:02;;;;;;;;;;;19.90;55.00;;;;;;4970882;28;19933;-69
2022/04/26 13:15:29;;;;;;;;;;;19.60;56.30;;;;;;4987487;28;19933;-68
2022/04/26 13:17:57;;;;;;;;;;;19.50;56.20;;;;;;4986508;28;21015;-69
2022/04/26 13:20:24;;;;;;;;;;;19.20;56.50;;;;;;4988280;28;20081;-68
2022/04/26 13:22:51;;;;;;;;;;;19.10;57.50;;;;;;4986263;28;20778;-69
2022/04/26 13:25:18;;;;;;;;;;;19.00;57.40;;;;;;5002881;28;19932;-68
2022/04/26 13:27:48;;;;;;;;;;;19.10;57.90;;;;;;4997654;28;20604;-68
2022/04/26 13:30:16;;;;;;;;;;;19.30;60.00;;;;;;4981755;28;19933;-68
2022/04/26 13:32:43;;;;;;;;;;;19.30;59.00;;;;;;4986026;28;19940;-69
2022/04/26 13:35:09;;;;;;;;;;;19.30;56.90;;;;;;4988819;28;19983;-69
2022/04/26 13:37:38;;;;;;;;;;;19.30;58.40;;;;;;4981042;28;19941;-69
2022/04/26 13:40:06;;;;;;;;;;;19.60;59.20;;;;;;4976952;28;19964;-69
2022/04/26 13:42:35;;;;;;;;;;;19.60;57.10;;;;;;4986824;28;19933;-68
2022/04/26 13:45:02;;;;;;;;;;;19.50;58.90;;;;;;4983639;28;19932;-68
2022/04/26 13:47:29;;;;;;;;;;;19.40;57.20;;;;;;4986850;28;19932;-68
2022/04/26 13:49:57;;;;;;;;;;;19.30;57.10;;;;;;4986229;28;19933;-68
2022/04/26 13:52:24;;;;;;;;;;;19.20;58.10;;;;;;4985638;28;19933;-67
2022/04/26 13:54:50;;;;;;;;;;;19.10;57.70;;;;;;4984091;28;19936;-67
2022/04/26 13:57:18;;;;;;;;;;;19.00;57.40;;;;;;5003764;28;19932;-67
2022/04/26 13:59:45;;;;;;;;;;;19.20;59.20;;;;;;4987323;28;20604;-67
2022/04/26 14:02:13;;;;;;;;;;;19.80;57.90;;;;;;4987945;28;19941;-68
2022/04/26 14:04:40;;;;;;;;;;;20.00;55.80;;;;;;4989637;28;19940;-68
2022/04/26 14:07:07;;;;;;;;;;;20.00;57.60;;;;;;4982129;28;20745;-68
2022/04/26 14:09:34;;;;;;;;;;;20.00;56.10;;;;;;4985349;28;19982;-68
2022/04/26 14:12:02;;;;;;;;;;;19.90;56.20;;;;;;4985689;28;19979;-70
2022/04/26 14:22:46;;;;;;;;;;;19.90;56.70;;;;;;4980021;28;20066;-69
2022/04/26 14:25:13;;;;;;;;;;;20.10;56.90;;;;;;4995445;28;20183;-69
2022/04/26 14:27:42;;;;;;;;;;;19.80;56.60;;;;;;4987203;28;19933;-69
2022/04/26 14:30:11;;;;;;;;;;;19.80;57.20;;;;;;4979954;28;19933;-68
2022/04/26 14:32:57;;;;;;;;;;;19.80;56.00;;;;;;4982186;28;19940;-68
2022/04/26 14:35:25;;;;;;;;;;;20.20;56.10;;;;;;4978661;28;19983;-68
2022/04/26 14:37:53;;;;;;;;;;;20.30;55.10;;;;;;5000088;28;20055;-69
2022/04/26 14:40:20;;;;;;;;;;;20.20;54.60;;;;;;4983911;28;19933;-68
2022/04/26 14:42:47;;;;;;;;;;;20.20;54.20;;;;;;4974406;28;19933;-69
2022/04/26 14:45:14;;;;;;;;;;;19.80;53.40;;;;;;4983106;28;20052;-68
2022/04/26 14:47:41;;;;;;;;;;;19.60;55.00;;;;;;4980268;28;19933;-67
2022/04/26 14:50:09;;;;;;;;;;;19.80;56.00;;;;;;4982694;28;19932;-68
2022/04/26 14:52:37;;;;;;;;;;;19.80;54.40;;;;;;4980980;28;19937;-67
2022/04/26 14:55:08;;;;;;;;;;;19.80;55.10;;;;;;4998174;28;20853;-67
2022/04/26 14:57:36;;;;;;;;;;;20.00;56.80;;;;;;4980533;28;19933;-68
2022/04/26 15:00:07;;;;;;;;;;;19.90;54.60;;;;;;4981357;28;20063;-68
2022/04/26 15:02:38;;;;;;;;;;;20.00;55.50;;;;;;4987193;28;19990;-68
2022/04/26 15:05:09;;;;;;;;;;;19.70;55.50;;;;;;4983748;28;20691;-68
2022/04/26 15:09:42;;;;;;;;;;;19.70;57.60;;;;;;4985097;28;20001;-69
2022/04/26 15:10:24;;;;;;;;;;;19.60;57.80;;;;;;4985905;28;19933;-68
2022/04/26 15:18:22;;;;;;;;;;;19.40;56.80;;;;;;4987133;28;20034;-67
2022/04/26 15:20:52;;;;;;;;;;;19.70;57.10;;;;;;4980359;28;19939;-68
2022/04/26 15:23:20;;;;;;;;;;;19.80;56.40;;;;;;4989204;28;19982;-69
2022/04/26 15:25:52;;;;;;;;;;;19.70;56.80;;;;;;4992572;28;22608;-69
2022/04/26 15:28:19;;;;;;;;;;;19.80;55.20;;;;;;4991296;28;19934;-67
2022/04/26 15:30:48;;;;;;;;;;;19.70;58.30;;;;;;4991731;28;19939;-68
2022/04/26 15:33:15;;;;;;;;;;;19.70;56.90;;;;;;4994107;28;19932;-68
2022/04/26 15:35:42;;;;;;;;;;;19.70;55.60;;;;;;5001620;28;22622;-68
2022/04/26 15:38:10;;;;;;;;;;;19.80;55.60;;;;;;4990654;28;20118;-69
2022/04/26 15:40:38;;;;;;;;;;;19.80;55.90;;;;;;4991164;28;19933;-68
2022/04/26 15:43:05;;;;;;;;;;;19.60;54.70;;;;;;4991808;28;19990;-68
2022/04/26 15:45:33;;;;;;;;;;;19.50;55.30;;;;;;4995652;28;19933;-69
2022/04/26 15:48:03;;;;;;;;;;;19.20;56.70;;;;;;4973157;28;20681;-68
2022/04/26 15:50:30;;;;;;;;;;;19.20;56.70;;;;;;4990669;28;20533;-68
2022/04/26 15:52:57;;;;;;;;;;;19.10;56.60;;;;;;5006259;28;19979;-68
2022/04/26 15:55:24;;;;;;;;;;;19.00;56.60;;;;;;4984755;28;20408;-68
2022/04/26 15:57:54;;;;;;;;;;;18.90;57.00;;;;;;4988839;28;20312;-68
2022/04/26 16:00:21;;;;;;;;;;;18.80;56.50;;;;;;4984597;28;19940;-68
2022/04/26 16:02:48;;;;;;;;;;;18.70;56.80;;;;;;4987156;28;20821;-68
2022/04/26 16:05:16;;;;;;;;;;;18.60;56.60;;;;;;4987201;28;19933;-68
2022/04/26 16:07:43;;;;;;;;;;;18.60;56.80;;;;;;4989748;28;20554;-68
2022/04/26 16:21:13;;;;;;;;;;;19.10;56.20;;;;;;4988228;28;20550;-68
2022/04/26 16:23:40;;;;;;;;;;;19.00;57.10;;;;;;4985414;28;22288;-69
2022/04/26 16:26:07;;;;;;;;;;;18.90;57.20;;;;;;4986046;28;20028;-68
2022/04/26 16:28:35;;;;;;;;;;;18.90;58.00;;;;;;4989900;28;19933;-68
2022/04/26 16:31:03;;;;;;;;;;;18.80;57.80;;;;;;4989639;28;20016;-68
2022/04/26 16:33:30;;;;;;;;;;;18.80;56.90;;;;;;4982700;28;20002;-68
2022/04/26 16:35:57;;;;;;;;;;;18.70;58.50;;;;;;4982721;28;19935;-69
2022/04/26 16:38:24;;;;;;;;;;;18.70;57.80;;;;;;4987499;28;19940;-68
2022/04/26 16:40:52;;;;;;;;;;;18.70;58.50;;;;;;4989317;28;20683;-68
2022/04/26 16:43:19;;;;;;;;;;;18.60;58.10;;;;;;4987640;28;22167;-68
2022/04/26 16:45:47;;;;;;;;;;;18.50;57.90;;;;;;4984347;28;19932;-68
2022/04/26 16:48:14;;;;;;;;;;;18.40;59.10;;;;;;4985148;28;19932;-68
2022/04/26 16:50:41;;;;;;;;;;;18.20;58.60;;;;;;4985420;28;22440;-68
2022/04/26 16:53:08;;;;;;;;;;;18.10;59.10;;;;;;4970004;28;20662;-68
2022/04/26 16:55:35;;;;;;;;;;;18.00;60.80;;;;;;4988583;28;19941;-70
2022/04/26 16:58:02;;;;;;;;;;;17.90;61.20;;;;;;4987018;28;20994;-68
2022/04/26 17:00:29;;;;;;;;;;;17.90;62.20;;;;;;4983389;28;20070;-68
2022/04/26 17:02:56;;;;;;;;;;;17.80;62.90;;;;;;4983929;28;20011;-68
2022/04/26 17:05:24;;;;;;;;;;;17.70;63.10;;;;;;4986409;28;19933;-68
2022/04/26 17:07:51;;;;;;;;;;;17.60;63.80;;;;;;4982017;28;19933;-68
2022/04/26 17:10:18;;;;;;;;;;;17.60;64.50;;;;;;4981385;28;19990;-68
2022/04/26 17:12:48;;;;;;;;;;;17.50;64.10;;;;;;4991746;28;20396;-68
2022/04/26 17:15:19;;;;;;;;;;;17.40;64.20;;;;;;4993067;28;19933;-68
2022/04/26 17:17:47;;;;;;;;;;;17.40;63.60;;;;;;4988162;28;20007;-67
2022/04/26 17:20:14;;;;;;;;;;;17.20;65.00;;;;;;4984858;28;19933;-67
2022/04/26 17:22:43;;;;;;;;;;;17.20;65.60;;;;;;4998901;28;22340;-68
2022/04/26 17:25:16;;;;;;;;;;;17.10;65.70;;;;;;4977192;28;19933;-68
2022/04/26 17:28:09;;;;;;;;;;;17.10;65.50;;;;;;4984186;28;19937;-67
2022/04/26 17:30:37;;;;;;;;;;;17.00;65.60;;;;;;4986910;28;19933;-67
2022/04/26 17:33:05;;;;;;;;;;;17.00;65.70;;;;;;4983401;28;19957;-68
2022/04/26 17:35:32;;;;;;;;;;;16.90;66.80;;;;;;4991647;28;20704;-67
2022/04/26 17:37:59;;;;;;;;;;;16.90;67.90;;;;;;4987233;28;20923;-67
2022/04/26 17:40:26;;;;;;;;;;;16.80;68.40;;;;;;4987516;28;19994;-68
2022/04/26 17:42:53;;;;;;;;;;;16.80;67.50;;;;;;4986981;28;19942;-68
2022/04/26 17:45:21;;;;;;;;;;;16.70;67.40;;;;;;4987985;28;20754;-67
2022/04/26 17:47:49;;;;;;;;;;;16.70;67.20;;;;;;4987916;28;19978;-67
2022/04/26 17:50:21;;;;;;;;;;;16.70;67.80;;;;;;4998335;28;19932;-67
2022/04/26 17:58:21;;;;;;;;;;;16.50;67.60;;;;;;4979902;28;19932;-68
2022/04/26 18:00:48;;;;;;;;;;;16.50;67.70;;;;;;4973435;28;20732;-67
2022/04/26 18:03:15;;;;;;;;;;;16.50;68.30;;;;;;4986264;28;19940;-67
2022/04/26 18:05:44;;;;;;;;;;;16.40;69.10;;;;;;4987320;28;23053;-67
2022/04/26 18:08:11;;;;;;;;;;;16.50;71.30;;;;;;4984849;28;19933;-67
2022/04/26 18:10:39;;;;;;;;;;;16.40;71.80;;;;;;4970952;28;19940;-67
2022/04/26 18:13:06;;;;;;;;;;;16.40;72.80;;;;;;4986796;28;19955;-68
2022/04/26 18:15:34;;;;;;;;;;;16.30;73.20;;;;;;4979863;28;19991;-68
2022/04/26 18:18:01;;;;;;;;;;;16.30;73.10;;;;;;4984063;28;19941;-68
2022/04/26 18:20:31;;;;;;;;;;;16.30;73.60;;;;;;4981915;28;22359;-67
2022/04/26 18:23:01;;;;;;;;;;;16.20;74.80;;;;;;4984968;28;20734;-67
2022/04/26 18:28:15;;;;;;;;;;;16.10;73.50;;;;;;4988075;28;22101;-67
2022/04/26 18:30:45;;;;;;;;;;;16.10;74.00;;;;;;4984058;28;21269;-67
2022/04/26 18:33:12;;;;;;;;;;;16.10;74.30;;;;;;4990479;28;19975;-67
2022/04/26 18:35:39;;;;;;;;;;;16.00;76.00;;;;;;5001753;28;19995;-67
2022/04/26 18:38:09;;;;;;;;;;;16.00;77.10;;;;;;4986665;28;20014;-67
2022/04/26 18:40:37;;;;;;;;;;;15.90;78.20;;;;;;4988952;28;19933;-67
2022/04/26 18:43:05;;;;;;;;;;;15.90;78.50;;;;;;4987777;28;20062;-67
2022/04/26 18:45:32;;;;;;;;;;;15.80;79.00;;;;;;4997386;28;19933;-67
2022/04/26 18:47:59;;;;;;;;;;;15.80;79.20;;;;;;4991204;28;19972;-66
2022/04/26 18:50:26;;;;;;;;;;;15.70;79.30;;;;;;4991917;28;19933;-66
2022/04/26 18:52:53;;;;;;;;;;;15.70;80.40;;;;;;4988240;28;22670;-65
2022/04/26 18:55:21;;;;;;;;;;;15.60;78.90;;;;;;4991487;28;22318;-66
2022/04/26 18:57:50;;;;;;;;;;;15.60;78.90;;;;;;4990027;28;20003;-66
2022/04/26 19:00:23;;;;;;;;;;;15.60;80.10;;;;;;5004385;28;20608;-66